Time;durP1;ratioP1;P1;durP2;ratioP2;P2;SDS_P1;SDS_P2;PMS_P1;PMS_P2;Temp;Humidity;BMP_temperature;BMP_pressure;BME280_temperature;BME280_humidity;BME280_pressure;Samples;Min_cycle;Max_cycle;Signal;HPM_P1;HPM_P2
2024/01/13 00:00:16;;;;;;;10.68;2.80;;;3.10;99.90;;;;;;6238538;23;20018;-81
2024/01/13 00:02:42;;;;;;;6.38;2.25;;;3.10;99.90;;;;;;6240412;23;20020;-81
2024/01/13 00:05:07;;;;;;;7.73;2.80;;;3.10;99.90;;;;;;6241260;23;20424;-81
2024/01/13 00:07:33;;;;;;;6.25;2.10;;;3.20;99.90;;;;;;6238242;23;20762;-81
2024/01/13 00:09:59;;;;;;;6.60;2.67;;;3.00;99.90;;;;;;6240684;23;20012;-81
2024/01/13 00:12:24;;;;;;;10.10;2.83;;;3.00;99.90;;;;;;6239614;23;20020;-81
2024/01/13 00:14:51;;;;;;;8.60;3.15;;;3.00;99.90;;;;;;6239234;23;20098;-80
2024/01/13 00:17:17;;;;;;;10.77;3.15;;;3.20;99.90;;;;;;6239374;23;20251;-81
2024/01/13 00:19:42;;;;;;;8.25;3.08;;;3.20;99.90;;;;;;6238579;23;20180;-81
2024/01/13 00:22:08;;;;;;;7.33;3.37;;;3.10;99.90;;;;;;6237917;23;20228;-81
2024/01/13 00:24:34;;;;;;;6.80;3.33;;;3.10;99.90;;;;;;6213203;23;20744;-81
2024/01/13 00:26:59;;;;;;;6.20;2.80;;;3.30;99.90;;;;;;6212304;23;20091;-81
2024/01/13 00:29:25;;;;;;;4.87;2.53;;;3.10;99.90;;;;;;6213732;23;20020;-80
2024/01/13 00:31:50;;;;;;;7.67;2.93;;;3.20;99.90;;;;;;6240009;23;20239;-82
2024/01/13 00:34:16;;;;;;;4.07;2.53;;;3.30;99.90;;;;;;6214120;23;20016;-81
2024/01/13 00:36:42;;;;;;;6.97;2.70;;;3.30;99.90;;;;;;6238412;23;20727;-81
2024/01/13 00:39:08;;;;;;;7.20;2.67;;;3.30;99.90;;;;;;6213247;23;20227;-80
2024/01/13 00:41:34;;;;;;;4.88;2.47;;;3.40;99.90;;;;;;6238072;23;20085;-81
2024/01/13 00:44:00;;;;;;;;;;;3.40;99.90;;;;;;6239180;23;20342;-80
2024/01/13 00:46:26;;;;;;;5.35;2.42;;;3.40;99.90;;;;;;6238912;23;19915;-79
2024/01/13 00:48:51;;;;;;;5.00;2.45;;;3.40;99.90;;;;;;6237845;23;20074;-80
2024/01/13 00:51:17;;;;;;;5.57;2.13;;;3.40;99.90;;;;;;6237562;23;20016;-79
2024/01/13 00:53:43;;;;;;;5.05;2.20;;;3.40;99.90;;;;;;6212674;23;20428;-81
2024/01/13 00:56:09;;;;;;;4.30;2.13;;;3.30;99.90;;;;;;6237983;23;20086;-80
2024/01/13 00:58:34;;;;;;;4.57;1.92;;;3.30;99.90;;;;;;6212729;23;20012;-80
2024/01/13 01:01:02;;;;;;;5.35;2.00;;;3.20;99.90;;;;;;6238568;23;20349;-80
2024/01/13 01:03:28;;;;;;;3.55;1.90;;;3.20;99.90;;;;;;6239383;23;20012;-80
2024/01/13 01:05:54;;;;;;;3.85;1.80;;;3.20;99.90;;;;;;6237662;23;20576;-80
2024/01/13 01:08:20;;;;;;;7.60;1.70;;;3.00;99.90;;;;;;6239006;23;20012;-80
2024/01/13 01:10:46;;;;;;;5.63;1.75;;;3.10;99.90;;;;;;6238430;23;20274;-80
2024/01/13 01:13:12;;;;;;;5.93;1.70;;;3.10;99.90;;;;;;6236783;23;20012;-80
2024/01/13 01:15:37;;;;;;;5.93;1.92;;;3.00;99.90;;;;;;6238227;23;20024;-80
2024/01/13 01:18:03;;;;;;;6.15;2.30;;;3.00;99.90;;;;;;6237642;23;20024;-81
2024/01/13 01:20:29;;;;;;;7.18;1.80;;;3.10;99.90;;;;;;6237460;23;20024;-80
2024/01/13 01:22:54;;;;;;;6.53;2.00;;;3.00;99.90;;;;;;6238033;23;20012;-81
2024/01/13 01:25:20;;;;;;;4.95;2.05;;;3.10;99.90;;;;;;6238585;23;20239;-81
2024/01/13 01:27:46;;;;;;;5.60;1.83;;;3.00;99.90;;;;;;6237279;23;20031;-81
2024/01/13 01:30:12;;;;;;;5.83;2.20;;;3.10;99.90;;;;;;6238188;23;20103;-80
2024/01/13 01:32:38;;;;;;;4.63;1.90;;;3.10;99.90;;;;;;6212534;23;20267;-80
2024/01/13 01:35:06;;;;;;;6.10;1.90;;;3.00;99.90;;;;;;6237579;23;20039;-80
2024/01/13 01:37:32;;;;;;;4.07;1.75;;;3.10;99.90;;;;;;6212136;23;20269;-80
2024/01/13 01:39:58;;;;;;;5.35;1.70;;;3.10;99.90;;;;;;6238430;23;20016;-81
2024/01/13 01:42:24;;;;;;;3.35;1.80;;;3.00;99.90;;;;;;6237442;23;20031;-80
2024/01/13 01:44:49;;;;;;;4.82;2.05;;;3.10;99.90;;;;;;6238445;23;20093;-80
2024/01/13 01:47:16;;;;;;;4.03;2.05;;;3.20;99.90;;;;;;6212069;23;20087;-80
2024/01/13 01:49:42;;;;;;;5.70;2.13;;;3.10;99.90;;;;;;6237892;23;20015;-80
2024/01/13 01:52:08;;;;;;;3.28;1.80;;;3.00;99.90;;;;;;6242572;22;20016;-80
2024/01/13 01:54:34;;;;;;;4.10;2.47;;;3.10;99.90;;;;;;6243048;22;20459;-80
2024/01/13 01:57:01;;;;;;;3.78;1.95;;;3.10;99.90;;;;;;6241892;22;20065;-81
2024/01/13 01:59:26;;;;;;;4.88;2.30;;;3.20;99.90;;;;;;6217757;22;20150;-81
2024/01/13 02:01:53;;;;;;;4.30;2.33;;;3.10;99.90;;;;;;6269666;22;20113;-81
2024/01/13 02:04:19;;;;;;;4.75;2.40;;;3.10;99.90;;;;;;6270053;22;20018;-81
2024/01/13 02:06:45;;;;;;;4.90;2.33;;;3.30;99.90;;;;;;6218070;22;20016;-81
2024/01/13 02:09:12;;;;;;;4.50;2.43;;;3.20;99.90;;;;;;6243601;22;20008;-81
2024/01/13 02:11:38;;;;;;;5.68;2.35;;;3.20;99.90;;;;;;6217107;22;20250;-81
2024/01/13 02:14:03;;;;;;;4.07;2.28;;;3.20;99.90;;;;;;6243586;22;20023;-81
2024/01/13 02:16:29;;;;;;;3.67;2.10;;;3.20;99.90;;;;;;6242299;22;20487;-80
2024/01/13 02:18:55;;;;;;;3.78;1.90;;;3.20;99.90;;;;;;6244493;22;20460;-80
2024/01/13 02:21:20;;;;;;;7.07;2.22;;;3.20;99.90;;;;;;6272450;22;20348;-80
2024/01/13 02:23:46;;;;;;;7.38;2.22;;;3.30;99.90;;;;;;6272898;22;20008;-81
2024/01/13 02:26:12;;;;;;;4.97;2.13;;;3.30;99.90;;;;;;6243904;22;20022;-81
2024/01/13 02:28:38;;;;;;;7.55;2.50;;;3.20;99.90;;;;;;6244636;22;20247;-81
2024/01/13 02:31:04;;;;;;;;;;;3.20;99.90;;;;;;6219255;22;20012;-80
2024/01/13 02:33:29;;;;;;;5.38;2.30;;;3.20;99.90;;;;;;6270183;22;19988;-80
2024/01/13 02:35:55;;;;;;;8.02;2.30;;;3.40;99.90;;;;;;6218649;22;20158;-80
2024/01/13 02:38:21;;;;;;;4.28;2.13;;;3.30;99.90;;;;;;6244667;22;20011;-81
2024/01/13 02:40:46;;;;;;;4.97;1.87;;;3.30;99.90;;;;;;6219456;22;20047;-81
2024/01/13 02:43:12;;;;;;;4.25;2.00;;;3.30;99.90;;;;;;6244223;22;20105;-80
2024/01/13 02:45:37;;;;;;;7.00;2.25;;;3.40;99.90;;;;;;6244042;22;20015;-80
2024/01/13 02:48:16;;;;;;;6.43;1.97;;;3.30;99.90;;;;;;6272346;22;20050;-80
2024/01/13 02:50:47;;;;;;;4.95;2.05;;;3.40;99.90;;;;;;6261519;22;20027;-80
2024/01/13 02:53:12;;;;;;;3.95;2.05;;;3.40;99.90;;;;;;6239916;23;20016;-80
2024/01/13 02:55:39;;;;;;;4.43;1.80;;;3.40;99.90;;;;;;6241804;23;20046;-80
2024/01/13 02:58:05;;;;;;;;;;;3.50;99.90;;;;;;6241823;23;20012;-80
2024/01/13 03:00:30;;;;;;;4.47;2.05;;;3.40;99.90;;;;;;6239622;23;20754;-80
2024/01/13 03:02:56;;;;;;;6.87;1.70;;;3.40;99.90;;;;;;6213077;23;20019;-80
2024/01/13 03:05:22;;;;;;;4.45;1.88;;;3.40;99.90;;;;;;6238074;23;20016;-81
2024/01/13 03:07:47;;;;;;;2.83;1.50;;;3.40;99.90;;;;;;6213158;23;20012;-80
2024/01/13 03:10:13;;;;;;;5.80;1.98;;;3.40;99.90;;;;;;6241526;23;20230;-80
2024/01/13 03:12:38;;;;;;;6.05;1.75;;;3.40;99.90;;;;;;6240430;23;20079;-80
2024/01/13 03:15:04;;;;;;;3.57;1.63;;;3.50;99.90;;;;;;6240573;23;20008;-80
2024/01/13 03:17:30;;;;;;;5.88;2.20;;;3.40;99.90;;;;;;6239324;23;20293;-80
2024/01/13 03:19:56;;;;;;;6.93;1.80;;;3.40;99.90;;;;;;6238997;23;20031;-80
2024/01/13 03:22:22;;;;;;;4.72;2.30;;;3.50;99.90;;;;;;6238948;23;20016;-81
2024/01/13 03:24:48;;;;;;;5.57;1.80;;;3.30;99.90;;;;;;6238981;23;20019;-80
2024/01/13 03:27:13;;;;;;;4.05;1.90;;;3.30;99.90;;;;;;6240882;23;20008;-81
2024/01/13 03:29:39;;;;;;;10.82;2.10;;;3.50;99.90;;;;;;6213500;23;20012;-80
2024/01/13 03:32:05;;;;;;;4.30;1.93;;;3.40;99.90;;;;;;6239003;23;20092;-80
2024/01/13 03:34:31;;;;;;;7.57;2.03;;;3.40;99.90;;;;;;6240833;23;20012;-80
2024/01/13 03:36:56;;;;;;;3.65;1.75;;;3.40;99.90;;;;;;6240312;23;20341;-81
2024/01/13 03:39:22;;;;;;;5.18;1.70;;;3.30;99.90;;;;;;6241041;23;20016;-80
2024/01/13 03:41:49;;;;;;;3.43;1.57;;;3.40;99.90;;;;;;6240407;23;20009;-80
2024/01/13 03:44:15;;;;;;;3.42;1.58;;;3.40;99.90;;;;;;6240180;23;20777;-80
2024/01/13 03:46:40;;;;;;;5.95;1.40;;;3.30;99.90;;;;;;6240847;23;20016;-80
2024/01/13 03:49:06;;;;;;;5.20;1.27;;;3.20;99.90;;;;;;6238771;23;20448;-80
2024/01/13 03:51:31;;;;;;;3.40;1.47;;;3.40;99.90;;;;;;6240541;22;20254;-80
2024/01/13 03:53:57;;;;;;;2.90;1.60;;;3.20;99.90;;;;;;6239139;23;20297;-80
2024/01/13 03:56:22;;;;;;;2.47;1.40;;;3.20;99.90;;;;;;6240105;23;20019;-80
2024/01/13 03:58:48;;;;;;;3.10;1.70;;;3.20;99.90;;;;;;6240068;23;20016;-80
2024/01/13 04:01:15;;;;;;;6.10;1.60;;;3.30;99.90;;;;;;6238926;23;20422;-79
2024/01/13 04:03:40;;;;;;;3.65;1.33;;;3.40;99.90;;;;;;6240480;23;20227;-80
2024/01/13 04:06:06;;;;;;;3.53;1.30;;;3.20;99.90;;;;;;6238542;23;20034;-80
2024/01/13 04:08:32;;;;;;;3.15;1.48;;;3.40;99.90;;;;;;6240521;23;20524;-79
2024/01/13 04:10:58;;;;;;;3.42;1.67;;;3.20;99.90;;;;;;6238145;23;20016;-79
2024/01/13 04:13:24;;;;;;;4.50;1.48;;;3.20;99.90;;;;;;6238510;23;20020;-79
2024/01/13 04:15:49;;;;;;;3.90;2.10;;;3.20;99.90;;;;;;6240655;23;20020;-79
2024/01/13 04:18:15;;;;;;;4.78;1.70;;;3.20;99.90;;;;;;6240525;23;20012;-79
2024/01/13 04:20:40;;;;;;;4.07;1.90;;;3.30;99.90;;;;;;6240660;23;20516;-79
2024/01/13 04:23:06;;;;;;;4.03;1.87;;;3.30;99.90;;;;;;6239989;23;20314;-79
2024/01/13 04:25:32;;;;;;;4.60;1.90;;;3.40;99.90;;;;;;6238796;23;20733;-79
2024/01/13 04:28:00;;;;;;;5.72;2.00;;;3.20;99.90;;;;;;6212109;23;20719;-78
2024/01/13 04:30:27;;;;;;;4.88;2.28;;;3.40;99.90;;;;;;6238589;23;20020;-79
2024/01/13 04:32:53;;;;;;;5.03;2.20;;;3.40;99.90;;;;;;6238230;23;20019;-78
2024/01/13 04:35:18;;;;;;;5.45;2.53;;;3.40;99.90;;;;;;6241019;23;20448;-79
2024/01/13 04:37:44;;;;;;;3.53;2.07;;;3.30;99.90;;;;;;6239945;23;20015;-79
2024/01/13 04:40:10;;;;;;;6.32;2.38;;;3.40;99.90;;;;;;6239835;23;20266;-79
2024/01/13 04:42:36;;;;;;;3.45;2.00;;;3.50;99.90;;;;;;6237324;23;20438;-79
2024/01/13 04:45:01;;;;;;;7.30;2.60;;;3.30;99.90;;;;;;6238600;23;20433;-79
2024/01/13 04:47:27;;;;;;;6.90;2.30;;;3.20;99.90;;;;;;6238366;23;20011;-79
2024/01/13 04:49:53;;;;;;;4.75;2.30;;;3.30;99.90;;;;;;6240537;23;20254;-79
2024/01/13 04:52:19;;;;;;;9.77;3.65;;;3.50;99.90;;;;;;6238164;23;20345;-79
2024/01/13 04:54:45;;;;;;;;;;;3.30;99.90;;;;;;6238913;23;20066;-79
2024/01/13 04:57:11;;;;;;;6.65;2.33;;;3.60;99.90;;;;;;6237434;23;19915;-80
2024/01/13 04:59:36;;;;;;;4.05;2.40;;;3.30;99.90;;;;;;6213142;23;20049;-79
2024/01/13 05:02:02;;;;;;;5.73;2.50;;;3.60;99.90;;;;;;6236817;23;20013;-79
2024/01/13 05:04:27;;;;;;;6.35;2.20;;;3.60;99.90;;;;;;6236575;23;20239;-79
2024/01/13 05:06:53;;;;;;;5.28;2.42;;;3.50;99.90;;;;;;6236102;23;20045;-79
2024/01/13 05:09:19;;;;;;;4.33;2.10;;;3.70;99.90;;;;;;6238102;23;20012;-79
2024/01/13 05:11:45;;;;;;;3.83;2.10;;;3.30;99.90;;;;;;6212128;23;20018;-79
2024/01/13 05:14:10;;;;;;;4.25;2.17;;;3.40;99.90;;;;;;6238128;23;20020;-79
2024/01/13 05:16:36;;;;;;;4.65;2.25;;;3.30;99.90;;;;;;6237794;23;20024;-79
2024/01/13 05:19:02;;;;;;;2.70;1.50;;;3.70;99.90;;;;;;6212796;23;20020;-79
2024/01/13 05:21:28;;;;;;;6.95;2.20;;;3.30;99.90;;;;;;6238207;23;20281;-80
2024/01/13 05:23:54;;;;;;;6.60;2.37;;;3.30;99.90;;;;;;6238147;23;20056;-80
2024/01/13 05:26:22;;;;;;;8.80;2.20;;;3.70;99.90;;;;;;6237095;23;20016;-80
2024/01/13 05:28:48;;;;;;;3.97;2.00;;;3.70;99.90;;;;;;6238296;23;20020;-80
2024/01/13 05:31:16;;;;;;;6.90;2.00;;;3.50;99.90;;;;;;6212829;23;20062;-80
2024/01/13 05:33:41;;;;;;;5.93;2.08;;;3.50;99.90;;;;;;6212836;23;20027;-80
2024/01/13 05:36:07;;;;;;;5.60;1.87;;;3.30;99.90;;;;;;6212991;23;20012;-80
2024/01/13 05:38:32;;;;;;;3.15;2.05;;;3.20;99.90;;;;;;6238568;23;20409;-79
2024/01/13 05:40:58;;;;;;;5.10;1.80;;;3.30;99.90;;;;;;6236923;23;20061;-79
2024/01/13 05:43:24;;;;;;;3.22;1.50;;;3.60;99.90;;;;;;6238558;23;20015;-80
2024/01/13 05:45:49;;;;;;;3.70;1.70;;;3.60;99.90;;;;;;6237749;23;20318;-80
2024/01/13 05:48:15;;;;;;;2.63;1.50;;;3.30;99.90;;;;;;6238300;23;20251;-79
2024/01/13 05:50:41;;;;;;;4.38;1.73;;;3.50;99.90;;;;;;6212773;23;20099;-79
2024/01/13 05:53:06;;;;;;;5.80;1.60;;;3.20;99.90;;;;;;6239503;23;20091;-79
2024/01/13 05:55:32;;;;;;;3.20;1.40;;;3.50;99.90;;;;;;6239196;23;20016;-80
2024/01/13 05:57:57;;;;;;;2.73;1.50;;;3.20;99.90;;;;;;6214446;23;20238;-79
2024/01/13 06:00:23;;;;;;;2.83;1.55;;;3.50;99.90;;;;;;6240121;23;20473;-80
2024/01/13 06:02:49;;;;;;;2.83;1.67;;;3.40;99.90;;;;;;6239066;23;20043;-79
2024/01/13 06:05:14;;;;;;;3.43;1.40;;;3.20;99.90;;;;;;6239531;23;20579;-80
2024/01/13 06:07:40;;;;;;;2.70;1.40;;;3.30;99.90;;;;;;6240145;23;20266;-80
2024/01/13 06:10:07;;;;;;;1.73;1.20;;;3.30;99.90;;;;;;6241683;23;20019;-80
2024/01/13 06:12:33;;;;;;;2.50;1.40;;;3.70;99.90;;;;;;6241118;23;20079;-80
2024/01/13 06:14:58;;;;;;;3.20;1.67;;;3.50;99.90;;;;;;6214941;23;20040;-80
2024/01/13 06:17:24;;;;;;;1.87;1.20;;;3.40;99.90;;;;;;6239746;23;20232;-80
2024/01/13 06:19:49;;;;;;;2.23;1.13;;;3.20;99.90;;;;;;6241538;23;20015;-80
2024/01/13 06:22:15;;;;;;;3.50;1.67;;;3.20;99.90;;;;;;6239793;23;20342;-80
2024/01/13 06:24:40;;;;;;;1.87;1.20;;;3.20;99.90;;;;;;6214015;23;20564;-80
2024/01/13 06:27:06;;;;;;;3.73;1.60;;;3.60;99.90;;;;;;6239491;23;20251;-80
2024/01/13 06:29:32;;;;;;;2.20;1.20;;;3.60;99.90;;;;;;6214936;23;20012;-80
2024/01/13 06:31:57;;;;;;;1.73;1.23;;;3.20;99.90;;;;;;6239536;23;20016;-80
2024/01/13 06:34:23;;;;;;;1.20;0.90;;;3.30;99.90;;;;;;6239727;23;20012;-80
2024/01/13 06:36:48;;;;;;;1.40;1.10;;;3.20;99.90;;;;;;6214576;23;20083;-80
2024/01/13 06:39:14;;;;;;;1.50;0.90;;;3.60;99.90;;;;;;6239404;23;20297;-80
2024/01/13 06:41:40;;;;;;;2.33;0.90;;;3.40;99.90;;;;;;6238555;23;20453;-80
2024/01/13 06:44:05;;;;;;;2.27;1.10;;;3.50;99.90;;;;;;6239606;23;20373;-80
2024/01/13 06:46:31;;;;;;;2.20;0.85;;;3.30;99.90;;;;;;6214728;23;20239;-79
2024/01/13 06:48:57;;;;;;;2.50;0.90;;;3.60;99.90;;;;;;6239399;23;20044;-80
2024/01/13 06:51:22;;;;;;;1.87;0.60;;;3.60;99.90;;;;;;6238678;23;20016;-79
2024/01/13 06:53:48;;;;;;;2.17;0.83;;;3.60;99.90;;;;;;6238720;23;20325;-79
2024/01/13 06:56:14;;;;;;;2.08;0.85;;;3.60;99.90;;;;;;6238304;23;20012;-79
2024/01/13 06:58:39;;;;;;;1.45;0.73;;;3.60;99.90;;;;;;6213711;23;20020;-80
2024/01/13 07:01:05;;;;;;;1.27;0.70;;;3.50;99.90;;;;;;6239139;23;20022;-79
2024/01/13 07:03:31;;;;;;;1.17;0.68;;;3.50;99.90;;;;;;6238779;23;20051;-82
2024/01/13 07:05:57;;;;;;;2.03;0.88;;;3.40;99.90;;;;;;6239110;23;20016;-80
2024/01/13 07:08:22;;;;;;;1.57;1.07;;;3.60;99.90;;;;;;6238521;23;20069;-80
2024/01/13 07:10:50;;;;;;;3.53;1.13;;;3.60;99.90;;;;;;6213926;23;20345;-80
2024/01/13 07:13:17;;;;;;;2.15;1.10;;;3.60;99.90;;;;;;6237520;23;20031;-79
2024/01/13 07:15:42;;;;;;;2.72;1.33;;;3.30;99.90;;;;;;6213257;23;20095;-80
2024/01/13 07:18:08;;;;;;;2.20;1.20;;;3.60;99.90;;;;;;6238701;23;20048;-80
2024/01/13 07:20:34;;;;;;;3.03;1.30;;;3.50;99.90;;;;;;6238859;23;20340;-80
2024/01/13 07:22:59;;;;;;;2.22;1.20;;;3.60;99.90;;;;;;6238020;23;20012;-79
2024/01/13 07:25:25;;;;;;;3.67;1.40;;;3.60;99.90;;;;;;6238944;23;20070;-80
2024/01/13 07:27:51;;;;;;;4.15;1.70;;;3.60;99.90;;;;;;6212708;23;20235;-79
2024/01/13 07:30:16;;;;;;;2.03;1.20;;;3.40;99.90;;;;;;6238855;23;20020;-82
2024/01/13 07:32:42;;;;;;;4.20;1.45;;;3.60;99.90;;;;;;6237878;23;20012;-80
2024/01/13 07:35:08;;;;;;;4.53;1.95;;;3.40;99.90;;;;;;6240383;23;20004;-79
2024/01/13 07:37:34;;;;;;;4.35;2.17;;;3.50;99.90;;;;;;6239774;23;20012;-79
2024/01/13 07:40:00;;;;;;;3.72;2.30;;;3.50;99.90;;;;;;6239082;23;20012;-79
2024/01/13 07:42:25;;;;;;;15.35;4.28;;;3.60;99.90;;;;;;6212590;23;20016;-79
2024/01/13 07:44:51;;;;;;;6.77;3.20;;;3.80;99.90;;;;;;6238911;23;20051;-80
2024/01/13 07:47:16;;;;;;;6.67;3.83;;;3.80;99.90;;;;;;6238153;23;20607;-81
2024/01/13 07:49:42;;;;;;;8.57;5.27;;;3.60;99.90;;;;;;6238089;23;20239;-81
2024/01/13 07:52:08;;;;;;;10.38;5.50;;;3.50;99.90;;;;;;6212795;23;20259;-80
2024/01/13 07:54:34;;;;;;;9.13;5.50;;;3.80;99.90;;;;;;6238576;23;20035;-80
2024/01/13 07:57:00;;;;;;;11.20;6.40;;;3.60;99.90;;;;;;6237284;23;20012;-79
2024/01/13 07:59:25;;;;;;;16.10;8.38;;;3.50;99.90;;;;;;6238488;23;20008;-79
2024/01/13 08:01:51;;;;;;;13.48;7.82;;;3.60;99.90;;;;;;6238040;23;20012;-80
2024/01/13 08:04:16;;;;;;;13.35;8.10;;;3.50;99.90;;;;;;6237735;23;20020;-80
2024/01/13 08:06:42;;;;;;;13.88;9.07;;;3.50;99.90;;;;;;6237203;23;20422;-80
2024/01/13 08:09:08;;;;;;;16.55;9.40;;;3.50;99.90;;;;;;6238169;23;20437;-80
2024/01/13 08:11:34;;;;;;;19.85;10.40;;;3.60;99.90;;;;;;6234324;23;20023;-80
2024/01/13 08:14:00;;;;;;;16.85;10.32;;;3.60;99.90;;;;;;6211593;23;20090;-80
2024/01/13 08:16:26;;;;;;;19.08;9.90;;;3.60;99.90;;;;;;6211718;23;20020;-80
2024/01/13 08:18:52;;;;;;;19.17;10.75;;;3.80;99.90;;;;;;6236539;23;20422;-79
2024/01/13 08:21:18;;;;;;;18.17;11.23;;;3.70;99.90;;;;;;6237552;23;20048;-79
2024/01/13 08:23:43;;;;;;;;;;;3.60;99.90;;;;;;6212249;23;20054;-80
2024/01/13 08:26:09;;;;;;;20.08;11.25;;;3.60;99.90;;;;;;6211686;23;19915;-80
2024/01/13 08:28:35;;;;;;;23.02;12.88;;;3.50;99.90;;;;;;6212088;23;20023;-81
2024/01/13 08:31:00;;;;;;;26.98;15.05;;;3.50;99.90;;;;;;6237418;23;20018;-80
2024/01/13 08:33:26;;;;;;;26.45;15.85;;;3.70;99.90;;;;;;6236746;23;20389;-81
2024/01/13 08:35:52;;;;;;;30.30;17.40;;;3.50;99.90;;;;;;6212905;23;20054;-81
2024/01/13 08:38:17;;;;;;;31.52;19.55;;;3.80;99.90;;;;;;6212358;23;20027;-81
2024/01/13 08:40:46;;;;;;;36.17;20.20;;;3.50;99.90;;;;;;6237154;23;20019;-81
2024/01/13 08:43:12;;;;;;;32.00;19.80;;;3.40;99.90;;;;;;6236183;23;20258;-80
2024/01/13 08:45:38;;;;;;;32.33;19.77;;;3.90;99.90;;;;;;6237696;23;20020;-81
2024/01/13 08:48:04;;;;;;;36.60;20.52;;;3.50;99.90;;;;;;6236359;23;20012;-81
2024/01/13 08:50:34;;;;;;;32.95;20.05;;;3.70;99.90;;;;;;6236934;23;20012;-80
2024/01/13 08:52:59;;;;;;;34.08;19.95;;;3.60;99.90;;;;;;6237065;23;20023;-80
2024/01/13 08:55:25;;;;;;;34.58;21.27;;;3.90;99.90;;;;;;6236757;23;20012;-80
2024/01/13 08:57:51;;;;;;;39.10;21.30;;;3.40;99.90;;;;;;6236608;23;20500;-81
2024/01/13 09:00:17;;;;;;;41.53;21.70;;;3.80;99.90;;;;;;6239190;23;20078;-80
2024/01/13 09:02:43;;;;;;;34.30;20.90;;;3.90;99.90;;;;;;6237984;23;20016;-80
2024/01/13 09:05:09;;;;;;;41.42;23.08;;;3.40;99.90;;;;;;6236979;23;20047;-80
2024/01/13 09:07:36;;;;;;;39.70;23.05;;;3.40;99.90;;;;;;6237179;23;20514;-80
2024/01/13 09:10:02;;;;;;;45.70;24.40;;;3.50;99.90;;;;;;6237285;23;20019;-81
2024/01/13 09:12:28;;;;;;;47.47;24.63;;;3.80;99.90;;;;;;6211106;23;20015;-81
2024/01/13 09:14:54;;;;;;;42.85;24.80;;;3.50;99.90;;;;;;6237141;23;20027;-81
2024/01/13 09:17:19;;;;;;;44.97;24.75;;;3.70;99.90;;;;;;6211728;23;20012;-80
2024/01/13 09:19:45;;;;;;;43.40;26.40;;;3.80;99.90;;;;;;6237809;23;20326;-80
2024/01/13 09:22:11;;;;;;;46.33;27.45;;;3.90;99.90;;;;;;6237671;23;20441;-80
2024/01/13 09:24:37;;;;;;;49.75;27.00;;;3.80;99.90;;;;;;6237199;23;20016;-80
2024/01/13 09:27:02;;;;;;;50.63;28.02;;;3.50;99.90;;;;;;6241650;22;20030;-80
2024/01/13 09:29:28;;;;;;;52.10;29.73;;;3.60;99.90;;;;;;6241030;23;20318;-81
2024/01/13 09:31:54;;;;;;;50.75;30.10;;;3.70;99.90;;;;;;6240771;23;20070;-81
2024/01/13 09:34:20;;;;;;;55.20;31.73;;;3.90;99.90;;;;;;6240607;23;20168;-80
2024/01/13 09:36:46;;;;;;;52.50;30.20;;;3.70;99.90;;;;;;6240256;23;20484;-80
2024/01/13 09:39:14;;;;;;;55.05;31.65;;;3.70;99.90;;;;;;6240016;23;20059;-80
2024/01/13 09:41:42;;;;;;;53.63;30.40;;;3.60;99.90;;;;;;6234961;23;20024;-80
2024/01/13 09:44:20;;;;;;;50.88;31.65;;;3.60;99.90;;;;;;6239999;23;20016;-80
2024/01/13 09:46:47;;;;;;;55.55;32.65;;;3.70;99.90;;;;;;6241866;23;20493;-81
2024/01/13 09:49:15;;;;;;;;;;;3.60;99.90;;;;;;6215363;23;20074;-80
2024/01/13 09:51:41;;;;;;;;;;;3.60;99.90;;;;;;6240712;23;20629;-81
2024/01/13 09:54:11;;;;;;;55.38;31.73;;;4.00;99.90;;;;;;6242796;23;19919;-81
2024/01/13 09:56:45;;;;;;;52.00;31.00;;;3.90;99.90;;;;;;6239235;23;20077;-81
2024/01/13 09:59:12;;;;;;;50.22;31.52;;;3.90;99.90;;;;;;6242831;23;20008;-81
2024/01/13 10:01:38;;;;;;;54.20;32.80;;;3.90;99.90;;;;;;6240271;23;20051;-82
2024/01/13 10:04:07;;;;;;;49.75;29.45;;;3.70;99.90;;;;;;6242881;23;20011;-82
2024/01/13 10:06:33;;;;;;;50.35;30.45;;;3.80;99.90;;;;;;6241001;23;20048;-81
2024/01/13 10:08:59;;;;;;;;;;;3.80;99.90;;;;;;6240640;23;20063;-82
2024/01/13 10:11:24;;;;;;;52.95;30.77;;;3.70;99.90;;;;;;6241834;23;19960;-81
2024/01/13 10:14:08;;;;;;;49.50;30.52;;;4.10;99.90;;;;;;6240557;23;20023;-81
2024/01/13 10:16:34;;;;;;;49.70;29.65;;;4.10;99.90;;;;;;6241017;23;20024;-82
2024/01/13 10:19:09;;;;;;;48.00;29.42;;;4.00;99.90;;;;;;6241033;23;20012;-81
2024/01/13 10:21:38;;;;;;;44.58;27.52;;;3.80;99.90;;;;;;6240615;23;20808;-81
2024/01/13 10:24:04;;;;;;;51.13;28.75;;;4.20;99.90;;;;;;6242838;23;20016;-81
2024/01/13 10:26:30;;;;;;;45.05;27.90;;;4.20;99.90;;;;;;6241776;23;20682;-81
2024/01/13 10:28:56;;;;;;;;;;;4.00;99.90;;;;;;6241569;23;20024;-82
2024/01/13 10:31:22;;;;;;;41.28;25.40;;;4.10;99.90;;;;;;6240241;23;19922;-82
2024/01/13 10:33:48;;;;;;;45.00;25.63;;;4.20;99.90;;;;;;6240846;23;20015;-82
2024/01/13 10:36:30;;;;;;;39.08;23.15;;;4.10;99.90;;;;;;6241375;23;20016;-82
2024/01/13 10:38:57;;;;;;;39.40;23.77;;;4.10;99.90;;;;;;6239095;23;20536;-82
2024/01/13 10:41:29;;;;;;;40.47;23.35;;;4.40;99.90;;;;;;6238537;23;20091;-82
2024/01/13 10:43:58;;;;;;;34.88;21.48;;;4.10;99.90;;;;;;6238603;23;20024;-82
2024/01/13 10:46:26;;;;;;;34.08;18.58;;;4.20;99.90;;;;;;6239050;23;20027;-82
2024/01/13 10:48:59;;;;;;;32.85;18.48;;;4.10;99.90;;;;;;6238442;23;20044;-83
2024/01/13 10:51:42;;;;;;;32.10;18.67;;;4.20;99.90;;;;;;6236817;23;20020;-82
2024/01/13 10:54:09;;;;;;;29.17;16.45;;;4.10;99.90;;;;;;6239785;23;20016;-82
2024/01/13 10:56:38;;;;;;;27.15;16.02;;;4.30;99.90;;;;;;6239095;23;20016;-84
2024/01/13 10:59:04;;;;;;;26.38;16.23;;;4.20;99.90;;;;;;6237681;23;20016;-81
2024/01/13 11:01:31;;;;;;;32.85;17.58;;;4.40;99.90;;;;;;6237764;23;20362;-80
2024/01/13 11:03:58;;;;;;;28.98;15.93;;;4.60;99.90;;;;;;6239207;22;20012;-80
2024/01/13 11:06:25;;;;;;;25.25;15.23;;;4.40;99.90;;;;;;6239326;22;20016;-80
2024/01/13 11:08:51;;;;;;;24.40;14.52;;;4.30;99.90;;;;;;6238350;23;20065;-80
2024/01/13 11:11:24;;;;;;;;;;;4.40;99.90;;;;;;6212846;23;20077;-81
2024/01/13 11:13:59;;;;;;;25.30;13.30;;;4.40;99.90;;;;;;6237936;23;19916;-80
2024/01/13 11:16:26;;;;;;;25.58;13.88;;;4.30;99.90;;;;;;6236280;23;20016;-80
2024/01/13 11:18:53;;;;;;;24.77;12.45;;;4.40;99.90;;;;;;6236725;23;20012;-81
2024/01/13 11:21:27;;;;;;;26.02;13.85;;;4.40;99.90;;;;;;6236991;23;20020;-80
2024/01/13 11:23:52;;;;;;;23.73;13.48;;;4.60;99.90;;;;;;6236973;23;20012;-80
2024/01/13 11:26:32;;;;;;;23.53;12.33;;;4.40;99.90;;;;;;6237760;23;20020;-81
2024/01/13 11:28:58;;;;;;;18.83;12.10;;;4.90;99.90;;;;;;6237276;23;20200;-81
2024/01/13 11:31:40;;;;;;;23.15;11.88;;;4.50;99.90;;;;;;6239145;23;20035;-80
2024/01/13 11:34:11;;;;;;;18.35;11.38;;;4.80;99.90;;;;;;6236316;23;20027;-80
2024/01/13 11:36:43;;;;;;;16.67;10.25;;;4.90;99.90;;;;;;6236860;23;20039;-78
2024/01/13 11:39:09;;;;;;;20.77;10.45;;;4.50;99.90;;;;;;6238827;23;20418;-78
2024/01/13 11:41:39;;;;;;;19.98;10.75;;;4.50;99.90;;;;;;6236520;23;20439;-77
2024/01/13 11:44:08;;;;;;;15.82;9.23;;;5.00;99.90;;;;;;6238171;23;20099;-79
2024/01/13 11:46:39;;;;;;;17.85;9.05;;;5.00;99.90;;;;;;6236766;23;20837;-78
2024/01/13 11:49:05;;;;;;;19.80;9.95;;;4.60;99.90;;;;;;6232892;23;20453;-79
2024/01/13 11:51:59;;;;;;;18.50;9.48;;;5.00;99.90;;;;;;6233206;23;20127;-79
2024/01/13 11:54:26;;;;;;;15.57;8.32;;;4.80;99.90;;;;;;6210136;23;20048;-79
2024/01/13 11:56:52;;;;;;;13.55;7.82;;;5.00;99.90;;;;;;6235679;23;20469;-78
2024/01/13 11:59:19;;;;;;;14.43;8.00;;;5.00;99.90;;;;;;6237225;23;20107;-78
2024/01/13 12:01:45;;;;;;;14.05;7.75;;;5.00;99.90;;;;;;6238578;23;20020;-79
2024/01/13 12:04:11;;;;;;;13.73;7.07;;;4.90;99.90;;;;;;6238052;23;20031;-79
2024/01/13 12:06:37;;;;;;;12.70;7.05;;;5.10;99.90;;;;;;6236782;23;20083;-79
2024/01/13 12:09:03;;;;;;;10.68;6.53;;;4.90;99.90;;;;;;6236713;23;20452;-79
2024/01/13 12:11:28;;;;;;;10.45;5.95;;;4.60;99.90;;;;;;6235717;23;20030;-79
2024/01/13 12:13:54;;;;;;;9.27;5.63;;;5.10;99.90;;;;;;6236849;23;20103;-78
2024/01/13 12:16:20;;;;;;;13.07;6.75;;;5.20;99.90;;;;;;6237717;23;20426;-79
2024/01/13 12:18:46;;;;;;;11.27;5.35;;;4.60;99.90;;;;;;6236181;23;20073;-80
2024/01/13 12:21:14;;;;;;;11.13;5.43;;;4.90;99.90;;;;;;6235530;23;20020;-79
2024/01/13 12:23:41;;;;;;;15.27;7.15;;;4.70;99.90;;;;;;6236106;23;20008;-79
2024/01/13 12:26:07;;;;;;;10.35;5.20;;;5.10;99.90;;;;;;6234785;23;20023;-79
2024/01/13 12:28:33;;;;;;;8.63;5.07;;;4.70;99.90;;;;;;6236926;23;20115;-80
2024/01/13 12:31:02;;;;;;;;;;;5.20;99.90;;;;;;6238513;23;20299;-79
2024/01/13 12:33:28;;;;;;;8.70;4.82;;;5.10;99.90;;;;;;6239592;23;19922;-80
2024/01/13 12:36:04;;;;;;;8.63;5.03;;;5.20;99.90;;;;;;6233829;23;20012;-79
2024/01/13 12:38:33;;;;;;;9.27;5.00;;;4.70;99.90;;;;;;6238685;23;20047;-80
2024/01/13 12:40:59;;;;;;;7.65;4.10;;;5.30;99.90;;;;;;6236930;23;20406;-79
2024/01/13 12:43:25;;;;;;;8.52;4.28;;;5.30;99.90;;;;;;6238046;23;20008;-80
2024/01/13 12:45:51;;;;;;;7.15;4.20;;;5.20;99.90;;;;;;6237713;23;20012;-79
2024/01/13 12:48:17;;;;;;;;;;;4.90;99.90;;;;;;6237266;23;20016;-80